Coleman, MI (48618)

10:55 AM EST on February 09, 2016 (GMT -0500)
Chippewa Township | | Change Station
CLOSE
Current Station
Personal Weather Station
Location: Mt Pleasant, MI
Elevation: 755 ft
Nearby Weather Stations

Elev 755 ft 43.63 °N, 84.65 °W | Updated 10 seconds ago

Overcast
Overcast
26.4 °F
Feels Like 18 °F
N
8.0
Wind Variable Wind from NW
Gusts 20.0 mph

Today
High -- | Low -- °F
--% Chance of Precip.
Yesterday
High -- | Low -- °F
Precip. -- in
Pressure 29.61 in
Visibility 10.0 miles
Clouds Overcast 1400 ft
Windchill 18 °F
Dew Point 0 °F
Humidity 32%
Rainfall Not available.
Snow Depth Not available.
7:45 AM 5:59 PM
New Moon, 1% visible
METAR KMOP 091535Z AUTO 30009G17KT 280V340 10SM OVC014 M02/M06 A2961 RMK AO2 T10231060
Pressure 29.61 in
Visibility 10.0 miles
Clouds Overcast 1400 ft
Windchill 18 °F
Dew Point 0 °F
Humidity 32%
Rainfall Not available.
Snow Depth Not available.
7:45 AM 5:59 PM
New Moon, 1% visible
METAR KMOP 091535Z AUTO 30009G17KT 280V340 10SM OVC014 M02/M06 A2961 RMK AO2 T10231060

10-Day Weather Forecast

Almanac

Astronomy

Feb. 09, 2016 Rise Set
Actual Time
Civil Twilight
Nautical Twilight
Astronomical Twilight
Moon
Length of Visible Light
Length of Day
Tomorrow will be .
, % of the Moon is Illuminated

Today's Extremes

State Highs State Lows

Community

WunderPhotos

Upload Photos

1,891,628 photos uploaded!

WunderBlog® & News

Nearby

Air Quality

  Air Quality AQ Index Pollutant
Not available.

Snow Depth

Station Depth Elevation

Earthquake Activity

City Distance Mag. Time & Date
Minimum magnitude displayed is 2.5.

Coastal Water Temperatures

Place Temperature

Stations

Nearby Weather Stations

Station Location Temp. Windchill Dew Point Humidity Wind Precip. Elev Updated Type
                   

Watches & Warnings

Winter Weather Advisory
Issued: 10:50 AM EST Feb. 9, 2016 – National Weather Service

... Winter Weather Advisory remains in effect until 9 PM EST this
evening...

Hazardous weather...

* an additional 1 to 3 inches is expected this afternoon and
   early evening. Bands of snow showers will continue to spiral
   off of Lake Huron and sweep southwestward.

* Total snow accumulations by this evening will range from 3 to
   6 inches.

Impacts...

* untreated and partially treated roads will be snow-covered
   and slippery.

* Visibility may be severely reduced during times of heavier
   snow.

Precautionary/preparedness actions...

* a Winter Weather Advisory means that periods of snow will
   cause travel difficulties. Be prepared for slippery roads and
   limited visibilities... and use caution while driving.

* Prepare... plan... and stay informed. Visit
   http://go.USA.Gov/rr8



Mann